Shinsei Maru — JD3498 — position and weather

sailwx.info

Track history (hours):
 
Tides and Currents Weather Stations Pressure Air Temp Water Temp Dewpoint Dewpoint Depression Visibility Wind Speed Wind Dir Waves Ship Positions

Shinsei Maru

Last reported at 2018-Feb-23 10:30 UTC. Time now 2018-Feb-23 10:35 UTC.
Position N 33°57' E 131°14'.

Length 79 m; draft 5 m.

Type: Cargo ship. MMSI: 431004315.

Date/timePositionNaut miles runAvg speedWind from/ knotsBaromVisibWave heightAir tempDewpointWater temp
2018-Feb-23 10:30N 33°57' E 131°14'0 0.0
2018-Feb-23 10:00N 33°57' E 131°14'0 0.0
2018-Feb-23 09:30N 33°57' E 131°14'0 0.0
2018-Feb-23 08:58N 33°57' E 131°14'0 0.0
2018-Feb-23 08:30N 33°57' E 131°14'0 0.0
2018-Feb-23 08:00N 33°57' E 131°14'0 0.0
2018-Feb-23 07:30N 33°57' E 131°14'0 0.0
2018-Feb-23 07:00N 33°57' E 131°14'0 0.0
2018-Feb-23 06:30N 33°57' E 131°14'0 0.0
2018-Feb-23 06:00N 33°57' E 131°14'0 0.0
2018-Feb-23 05:30N 33°57' E 131°14'0 0.0
2018-Feb-23 05:00N 33°57' E 131°14'0 0.0
2018-Feb-23 04:29N 33°57' E 131°14'0 0.0
2018-Feb-23 04:00N 33°57' E 131°14'0 0.0
2018-Feb-23 03:30N 33°57' E 131°14'0 0.0
2018-Feb-23 03:00N 33°57' E 131°14'0 0.0
2018-Feb-23 02:29N 33°57' E 131°14'0 0.5
2018-Feb-23 02:00N 33°57' E 131°14'0 0.0
2018-Feb-23 01:29N 33°57' E 131°14'0 0.0
2018-Feb-23 01:00N 33°57' E 131°14'0 0.0
2018-Feb-23 00:30N 33°57' E 131°14'0 0.0
2018-Feb-23 00:00N 33°57' E 131°14'0 0.0
2018-Feb-22 23:30N 33°57' E 131°14'0 0.0
2018-Feb-22 23:00N 33°57' E 131°14'0 0.0
2018-Feb-22 22:30N 33°57' E 131°14'0 0.0
2018-Feb-22 22:00N 33°57' E 131°14'0 0.0
2018-Feb-22 21:30N 33°57' E 131°14'0 0.3
2018-Feb-22 21:00N 33°57' E 131°14'3 5.2
2018-Feb-22 20:30N 33°54' E 131°13'0 0.0
2018-Feb-22 20:00N 33°54' E 131°13'0 0.0
2018-Feb-22 19:29N 33°54' E 131°13'0 0.0
2018-Feb-22 19:00N 33°54' E 131°13'0 0.0
2018-Feb-22 18:30N 33°54' E 131°13'0 0.0
2018-Feb-22 17:59N 33°54' E 131°13'0 0.0
2018-Feb-22 17:29N 33°54' E 131°13'0 0.1
2018-Feb-22 17:00N 33°54' E 131°13'0 0.0
2018-Feb-22 16:30N 33°54' E 131°13'0 0.1
2018-Feb-22 16:00N 33°54' E 131°13'0 0.0
2018-Feb-22 15:30N 33°54' E 131°13'0 0.0
2018-Feb-22 15:00N 33°54' E 131°13'0 0.0
2018-Feb-22 14:30N 33°54' E 131°13'0 0.0
2018-Feb-22 14:00N 33°54' E 131°13'0 0.0
2018-Feb-22 13:30N 33°54' E 131°13'0 0.0
2018-Feb-22 13:00N 33°54' E 131°13'0 0.0
2018-Feb-22 12:30N 33°54' E 131°13'0 0.1
2018-Feb-22 12:00N 33°54' E 131°13'0 0.0
2018-Feb-22 11:28N 33°54' E 131°13'1 1.2
2018-Feb-22 11:00N 33°54' E 131°13'612.2
2018-Feb-22 10:30N 33°56' E 131°06'612.8
2018-Feb-22 10:00N 33°58' E 130°59'510.9
2018-Feb-22 09:30N 33°55' E 130°53'612.2
2018-Feb-22 09:00N 33°58' E 130°46'612.7
2018-Feb-22 08:30N 33°57' E 130°39'612.7
2018-Feb-22 08:00N 33°56' E 130°31'611.1
2018-Feb-22 07:30N 33°52' E 130°26'612.3
2018-Feb-22 07:00N 33°48' E 130°21'612.3
2018-Feb-22 06:30N 33°44' E 130°15'612.5
2018-Feb-22 06:00N 33°40' E 130°10'712.5
2018-Feb-22 05:28N 33°37' E 130°03'612.3
2018-Feb-22 05:00N 33°34' E 129°56'1 0.0
2018-Feb-20 17:25N 33°34' E 129°55'612.5
2018-Feb-20 16:59N 33°36' E 130°02'712.3
2018-Feb-20 16:27N 33°39' E 130°08'512.2
2018-Feb-20 16:00N 33°42' E 130°14'612.8
2018-Feb-20 15:30N 33°46' E 130°19'713.0
2018-Feb-20 15:00N 33°51' E 130°25'612.1
2018-Feb-20 14:29N 33°56' E 130°30'612.9
2018-Feb-20 14:00N 33°57' E 130°37'713.1
2018-Feb-20 13:30N 33°58' E 130°45'612.4
2018-Feb-20 13:00N 33°56' E 130°52'4 7.4
2018-Feb-20 12:30N 33°57' E 130°56'4 8.9
2018-Feb-20 12:00N 33°58' E 131°02'612.8
2018-Feb-20 11:30N 33°55' E 131°08'510.0
2018-Feb-20 11:00N 33°56' E 131°14'1 1.9
2018-Feb-20 10:30N 33°57' E 131°14'0 0.0
2018-Feb-20 09:58N 33°57' E 131°14'0 0.0
2018-Feb-20 09:31N 33°57' E 131°14'0 0.0
2018-Feb-20 09:00N 33°57' E 131°14'0 0.0
2018-Feb-20 08:30N 33°57' E 131°14'0 0.0
2018-Feb-20 08:00N 33°57' E 131°14'0 0.0
2018-Feb-20 07:30N 33°57' E 131°14'0 0.0
2018-Feb-20 06:53N 33°57' E 131°14'0 0.0
2018-Feb-20 06:28N 33°57' E 131°14'0 0.0
2018-Feb-20 05:59N 33°57' E 131°14'0 0.0
2018-Feb-20 05:30N 33°57' E 131°14'0 0.0
2018-Feb-20 05:00N 33°57' E 131°14'0 0.0
2018-Feb-20 04:30N 33°57' E 131°14'0 0.0
2018-Feb-20 04:00N 33°57' E 131°14'0 0.0
2018-Feb-20 03:29N 33°57' E 131°14'0 0.0
2018-Feb-20 03:00N 33°57' E 131°14'0 0.0
2018-Feb-20 02:28N 33°57' E 131°14'0 0.6
2018-Feb-20 02:00N 33°57' E 131°14'3 6.3
2018-Feb-20 01:30N 33°54' E 131°12'1 1.1
2018-Feb-20 00:59N 33°54' E 131°11'0 0.0
2018-Feb-20 00:30N 33°54' E 131°11'0 0.1
2018-Feb-19 23:59N 33°54' E 131°11'510.5
2018-Feb-19 23:30N 33°56' E 131°06'612.3
2018-Feb-19 23:01N 33°58' E 130°59'510.3
2018-Feb-19 22:30N 33°54' E 130°55'5 9.6
2018-Feb-19 22:00N 33°59' E 130°53'612.8
2018-Feb-19 21:30N 34°05' E 130°51'713.3
2018-Feb-19 21:00N 34°11' E 130°50'5 9.7
2018-Feb-19 20:30N 34°16' E 130°49'611.8
2018-Feb-19 19:59N 34°22' E 130°49'5 0.1
2018-Feb-18 09:31N 34°25' E 130°54'212.0
2018-Feb-18 09:20N 34°24' E 130°51'411.3
2018-Feb-18 08:58N 34°21' E 130°48'612.0
2018-Feb-18 08:30N 34°16' E 130°49'612.4
2018-Feb-18 08:01N 34°09' E 130°49'612.2
2018-Feb-18 07:31N 34°03' E 130°51'611.6
2018-Feb-18 07:00N 33°58' E 130°52'4 7.8
2018-Feb-18 06:30N 33°55' E 130°56'510.2
2018-Feb-18 06:00N 33°59' E 130°60'510.1
2018-Feb-18 05:30N 33°55' E 131°04'510.8
2018-Feb-18 05:00N 33°50' E 131°04'0 0.1
2018-Feb-18 04:30N 33°49' E 131°04'0 0.0
2018-Feb-18 04:00N 33°49' E 131°04'0 0.0
2018-Feb-18 03:30N 33°49' E 131°04'0 0.1
2018-Feb-18 03:00N 33°49' E 131°04'0 0.0
2018-Feb-18 02:30N 33°49' E 131°04'0 0.0
2018-Feb-18 02:01N 33°50' E 131°04'0 0.0
2018-Feb-18 01:31N 33°50' E 131°04'0 0.0
2018-Feb-18 01:00N 33°50' E 131°04'0 0.0
2018-Feb-18 00:31N 33°50' E 131°04'0 0.0
2018-Feb-17 23:59N 33°50' E 131°04'0 0.0
2018-Feb-17 23:30N 33°50' E 131°04'0 0.0
2018-Feb-17 23:01N 33°50' E 131°04'0 0.0
2018-Feb-17 22:31N 33°50' E 131°04'0 0.0
2018-Feb-17 22:00N 33°50' E 131°04'0 0.0
2018-Feb-17 21:31N 33°50' E 131°04'0 0.0
2018-Feb-17 21:00N 33°50' E 131°04'0 0.1
2018-Feb-17 20:31N 33°49' E 131°04'0 0.1
2018-Feb-17 20:00N 33°50' E 131°04'0 0.0
2018-Feb-17 19:31N 33°50' E 131°04'0 0.0
2018-Feb-17 19:00N 33°49' E 131°04'0 0.0
2018-Feb-17 18:31N 33°49' E 131°04'0 0.0
2018-Feb-17 18:00N 33°49' E 131°04'0 0.0
2018-Feb-17 17:30N 33°49' E 131°04'0 0.0
2018-Feb-17 17:00N 33°49' E 131°04'0 0.0
2018-Feb-17 16:30N 33°49' E 131°04'0 0.0
2018-Feb-17 15:59N 33°49' E 131°04'0 0.0
2018-Feb-17 15:31N 33°50' E 131°04'0 0.0
2018-Feb-17 15:01N 33°50' E 131°04'0 0.0
2018-Feb-17 14:31N 33°50' E 131°04'0 0.1
2018-Feb-17 14:01N 33°49' E 131°04'0 0.1
2018-Feb-17 13:30N 33°49' E 131°04'0 0.0
2018-Feb-17 13:01N 33°49' E 131°04'0 0.1
2018-Feb-17 12:30N 33°49' E 131°04'0 0.1
2018-Feb-17 12:01N 33°49' E 131°04'0 0.0
2018-Feb-17 11:30N 33°49' E 131°04'0 0.0
2018-Feb-17 11:00N 33°49' E 131°04'0 0.0
2018-Feb-17 10:28N 33°49' E 131°04'0 0.0
2018-Feb-17 10:00N 33°49' E 131°04'0 0.0
2018-Feb-17 09:30N 33°49' E 131°04'0 0.0
2018-Feb-17 09:01N 33°49' E 131°04'0 0.1
2018-Feb-17 08:29N 33°49' E 131°04'0 0.0
2018-Feb-17 07:59N 33°49' E 131°04'0 0.0
2018-Feb-17 07:30N 33°49' E 131°04'0 0.0
2018-Feb-17 07:00N 33°49' E 131°04'0 0.0
2018-Feb-17 06:31N 33°49' E 131°04'0 0.0
2018-Feb-17 06:00N 33°49' E 131°04'0 0.0
2018-Feb-17 05:30N 33°49' E 131°04'0 0.0
2018-Feb-17 05:00N 33°49' E 131°04'0 0.0
2018-Feb-17 04:31N 33°49' E 131°04'0 0.1
2018-Feb-17 04:00N 33°50' E 131°04'4 8.2
2018-Feb-17 03:30N 33°47' E 131°00'0 0.1
2018-Feb-17 03:01N 33°47' E 131°00'0 0.0
2018-Feb-17 02:31N 33°47' E 131°00'0 0.0
2018-Feb-17 02:00N 33°47' E 131°00'0 0.0
2018-Feb-17 01:31N 33°47' E 131°00'0 0.0
2018-Feb-17 01:00N 33°47' E 131°00'0 0.0
2018-Feb-17 00:31N 33°47' E 131°00'0 0.2
2018-Feb-17 00:01N 33°47' E 131°00'4 8.3
2018-Feb-16 23:30N 33°49' E 131°05'1 1.0
2018-Feb-16 23:01N 33°49' E 131°06'0 0.0
2018-Feb-16 22:31N 33°49' E 131°06'0 0.0
2018-Feb-16 21:59N 33°49' E 131°06'0 0.0
2018-Feb-16 21:31N 33°49' E 131°06'0 0.0
2018-Feb-16 21:00N 33°49' E 131°06'0 0.0
2018-Feb-16 20:30N 33°49' E 131°06'0 0.0
2018-Feb-16 20:00N 33°49' E 131°06'0 0.0
2018-Feb-16 19:30N 33°49' E 131°06'0 0.0
2018-Feb-16 19:00N 33°49' E 131°06'0 0.0
2018-Feb-16 18:31N 33°49' E 131°06'0 0.0
2018-Feb-16 18:00N 33°49' E 131°06'0 0.0
2018-Feb-16 17:30N 33°49' E 131°06'0 0.1
2018-Feb-16 17:00N 33°49' E 131°05'5 9.2
2018-Feb-16 16:30N 33°48' E 131°11'611.7
2018-Feb-16 16:00N 33°47' E 131°18'611.7
2018-Feb-16 15:30N 33°45' E 131°25'611.8
2018-Feb-16 15:00N 33°44' E 131°31'611.6
2018-Feb-16 14:30N 33°42' E 131°38'611.3
2018-Feb-16 14:01N 33°39' E 131°43'612.3
2018-Feb-16 13:31N 33°34' E 131°48'713.0
2018-Feb-16 13:00N 33°29' E 131°53'713.3
2018-Feb-16 12:30N 33°23' E 131°57'713.1
2018-Feb-16 11:59N 33°18' E 132°02'12 0.7
2018-Feb-15 17:32N 33°10' E 132°13'913.6
2018-Feb-15 16:53N 33°15' E 132°05'614.1
2018-Feb-15 16:30N 33°18' E 131°60'713.9
2018-Feb-15 16:01N 33°24' E 131°54'713.6
2018-Feb-15 15:30N 33°30' E 131°50'713.8
2018-Feb-15 15:00N 33°36' E 131°46'713.6
2018-Feb-15 14:30N 33°41' E 131°41'713.3
2018-Feb-15 14:00N 33°43' E 131°33'612.7
2018-Feb-15 13:30N 33°45' E 131°26'612.4
2018-Feb-15 13:00N 33°46' E 131°19'612.3
2018-Feb-15 12:30N 33°48' E 131°11'5 9.8
2018-Feb-15 12:00N 33°49' E 131°06'0 0.1
2018-Feb-15 11:30N 33°49' E 131°06'0 0.0
2018-Feb-15 11:00N 33°49' E 131°06'0 0.0
2018-Feb-15 10:30N 33°49' E 131°06'0 0.0
2018-Feb-15 10:00N 33°49' E 131°06'0 0.0
2018-Feb-15 09:30N 33°49' E 131°06'0 0.0
2018-Feb-15 09:00N 33°49' E 131°06'0 0.0
2018-Feb-15 08:30N 33°49' E 131°06'0 0.0
2018-Feb-15 08:00N 33°49' E 131°06'0 0.0
2018-Feb-15 07:30N 33°49' E 131°06'0 0.1
2018-Feb-15 07:00N 33°49' E 131°06'0 0.0
2018-Feb-15 06:30N 33°49' E 131°06'0 0.0
2018-Feb-15 06:00N 33°49' E 131°06'0 0.0
2018-Feb-15 05:30N 33°49' E 131°06'0 0.0
2018-Feb-15 05:00N 33°49' E 131°06'0 0.1
2018-Feb-15 04:30N 33°49' E 131°06'4 7.9
2018-Feb-15 04:00N 33°48' E 131°01'1 2.3
2018-Feb-15 03:30N 33°47' E 131°00'0 0.0
2018-Feb-15 03:00N 33°47' E 131°00'0 0.0
2018-Feb-15 02:30N 33°47' E 131°00'0 0.0
2018-Feb-15 02:00N 33°47' E 131°00'0 0.0
2018-Feb-15 01:30N 33°47' E 131°00'0 0.0
2018-Feb-15 01:00N 33°47' E 131°00'0 0.0
2018-Feb-15 00:30N 33°47' E 131°00'0 0.0
2018-Feb-15 00:00N 33°47' E 131°00'0 0.0
2018-Feb-14 23:30N 33°47' E 131°00'3 6.7
2018-Feb-14 23:01N 33°49' E 131°04'713.5
2018-Feb-14 22:30N 33°52' E 131°11'510.5
2018-Feb-14 22:00N 33°57' E 131°14'0 0.1
2018-Feb-14 21:30N 33°57' E 131°14'0 0.0
2018-Feb-14 21:00N 33°57' E 131°14'0 0.0
2018-Feb-14 20:24N 33°57' E 131°14'0 0.0
2018-Feb-14 19:58N 33°57' E 131°14'0 0.0
2018-Feb-14 19:30N 33°57' E 131°14'0 0.0
2018-Feb-14 18:59N 33°57' E 131°14'0 0.0
2018-Feb-14 18:29N 33°57' E 131°14'0 0.0
2018-Feb-14 18:00N 33°57' E 131°14'0 0.0
2018-Feb-14 17:28N 33°57' E 131°14'0 0.0
2018-Feb-14 17:00N 33°57' E 131°14'0 0.0
2018-Feb-14 16:30N 33°57' E 131°14'0 0.0
2018-Feb-14 16:00N 33°57' E 131°14'0 0.0
2018-Feb-14 15:25N 33°57' E 131°14'0 0.0
2018-Feb-14 15:00N 33°57' E 131°14'0 0.0
2018-Feb-14 14:29N 33°57' E 131°14'0 0.0
2018-Feb-14 14:00N 33°57' E 131°14'0 0.0
2018-Feb-14 13:29N 33°57' E 131°14'0 0.0
2018-Feb-14 13:00N 33°57' E 131°14'0 0.0
2018-Feb-14 12:30N 33°57' E 131°14'0 0.0
2018-Feb-14 11:58N 33°57' E 131°14'0 0.0
2018-Feb-14 11:30N 33°57' E 131°14'0 0.0
2018-Feb-14 10:59N 33°57' E 131°14'0 0.0
2018-Feb-14 10:29N 33°57' E 131°14'0 0.0
2018-Feb-14 10:00N 33°57' E 131°14'0 0.0
2018-Feb-14 09:23N 33°57' E 131°14'0 0.0
2018-Feb-14 08:59N 33°57' E 131°14'0 0.0
2018-Feb-14 08:30N 33°57' E 131°14'0 0.0
2018-Feb-14 07:58N 33°57' E 131°14'0 0.0
2018-Feb-14 07:30N 33°57' E 131°14'0 0.0
2018-Feb-14 07:00N 33°57' E 131°14'0 0.0
2018-Feb-14 06:28N 33°57' E 131°14'0 0.0
2018-Feb-14 05:59N 33°57' E 131°14'0 0.0
2018-Feb-14 05:30N 33°57' E 131°14'0 0.0
2018-Feb-14 05:00N 33°57' E 131°14'0 0.0
2018-Feb-14 04:30N 33°57' E 131°14'0 0.0
2018-Feb-14 03:58N 33°57' E 131°14'0 0.0
2018-Feb-14 03:29N 33°57' E 131°14'0 0.0
2018-Feb-14 02:57N 33°57' E 131°14'0 0.0
2018-Feb-14 02:30N 33°57' E 131°14'0 0.2
2018-Feb-14 02:01N 33°57' E 131°14'4 8.5
2018-Feb-14 01:30N 33°52' E 131°14'611.9
2018-Feb-14 01:00N 33°51' E 131°21'612.2
2018-Feb-14 00:30N 33°50' E 131°28'612.3
2018-Feb-14 00:00N 33°49' E 131°36'612.4
2018-Feb-13 23:30N 33°47' E 131°43'612.6
2018-Feb-13 23:00N 33°46' E 131°50'612.0
2018-Feb-13 22:30N 33°44' E 131°57'1111.6
2018-Feb-13 21:32N 33°43' E 132°11'010.9
2018-Feb-13 21:29N 33°43' E 132°11'611.5
2018-Feb-13 20:56N 33°45' E 132°18'711.5
2018-Feb-13 20:22N 33°47' E 132°26'411.7
2018-Feb-13 20:00N 33°49' E 132°30'611.9
2018-Feb-13 19:30N 33°53' E 132°36'712.4
2018-Feb-13 18:57N 33°57' E 132°42'7311.1
2018-Feb-13 12:20N 34°27' E 134°03'1011.9
2018-Feb-13 11:30N 34°24' E 134°15'610.8
2018-Feb-13 11:00N 34°22' E 134°21'  
Track history (hours):
 
Tides and Currents Weather Stations Pressure Air Temp Water Temp Dewpoint Dewpoint Depression Visibility Wind Speed Wind Dir Waves Ship Positions

Shinsei Maru

Last reported at 2018-Feb-23 10:30 UTC. Time now 2018-Feb-23 10:35 UTC.
Position N 33°57' E 131°14'.

Length 79 m; draft 5 m.

Type: Cargo ship. MMSI: 431004315.

Date/timePositionNaut miles runAvg speedWind from/ knotsBaromVisibWave heightAir tempDewpointWater temp
2018-Feb-23 10:30N 33°57' E 131°14'0 0.0
2018-Feb-23 10:00N 33°57' E 131°14'0 0.0
2018-Feb-23 09:30N 33°57' E 131°14'0 0.0
2018-Feb-23 08:58N 33°57' E 131°14'0 0.0
2018-Feb-23 08:30N 33°57' E 131°14'0 0.0
2018-Feb-23 08:00N 33°57' E 131°14'0 0.0
2018-Feb-23 07:30N 33°57' E 131°14'0 0.0
2018-Feb-23 07:00N 33°57' E 131°14'0 0.0
2018-Feb-23 06:30N 33°57' E 131°14'0 0.0
2018-Feb-23 06:00N 33°57' E 131°14'0 0.0
2018-Feb-23 05:30N 33°57' E 131°14'0 0.0
2018-Feb-23 05:00N 33°57' E 131°14'0 0.0
2018-Feb-23 04:29N 33°57' E 131°14'0 0.0
2018-Feb-23 04:00N 33°57' E 131°14'0 0.0
2018-Feb-23 03:30N 33°57' E 131°14'0 0.0
2018-Feb-23 03:00N 33°57' E 131°14'0 0.0
2018-Feb-23 02:29N 33°57' E 131°14'0 0.5
2018-Feb-23 02:00N 33°57' E 131°14'0 0.0
2018-Feb-23 01:29N 33°57' E 131°14'0 0.0
2018-Feb-23 01:00N 33°57' E 131°14'0 0.0
2018-Feb-23 00:30N 33°57' E 131°14'0 0.0
2018-Feb-23 00:00N 33°57' E 131°14'0 0.0
2018-Feb-22 23:30N 33°57' E 131°14'0 0.0
2018-Feb-22 23:00N 33°57' E 131°14'0 0.0
2018-Feb-22 22:30N 33°57' E 131°14'0 0.0
2018-Feb-22 22:00N 33°57' E 131°14'0 0.0
2018-Feb-22 21:30N 33°57' E 131°14'0 0.3
2018-Feb-22 21:00N 33°57' E 131°14'3 5.2
2018-Feb-22 20:30N 33°54' E 131°13'0 0.0
2018-Feb-22 20:00N 33°54' E 131°13'0 0.0
2018-Feb-22 19:29N 33°54' E 131°13'0 0.0
2018-Feb-22 19:00N 33°54' E 131°13'0 0.0
2018-Feb-22 18:30N 33°54' E 131°13'0 0.0
2018-Feb-22 17:59N 33°54' E 131°13'0 0.0
2018-Feb-22 17:29N 33°54' E 131°13'0 0.1
2018-Feb-22 17:00N 33°54' E 131°13'0 0.0
2018-Feb-22 16:30N 33°54' E 131°13'0 0.1
2018-Feb-22 16:00N 33°54' E 131°13'0 0.0
2018-Feb-22 15:30N 33°54' E 131°13'0 0.0
2018-Feb-22 15:00N 33°54' E 131°13'0 0.0
2018-Feb-22 14:30N 33°54' E 131°13'0 0.0
2018-Feb-22 14:00N 33°54' E 131°13'0 0.0
2018-Feb-22 13:30N 33°54' E 131°13'0 0.0
2018-Feb-22 13:00N 33°54' E 131°13'0 0.0
2018-Feb-22 12:30N 33°54' E 131°13'0 0.1
2018-Feb-22 12:00N 33°54' E 131°13'0 0.0
2018-Feb-22 11:28N 33°54' E 131°13'1 1.2
2018-Feb-22 11:00N 33°54' E 131°13'612.2
2018-Feb-22 10:30N 33°56' E 131°06'612.8
2018-Feb-22 10:00N 33°58' E 130°59'510.9
2018-Feb-22 09:30N 33°55' E 130°53'612.2
2018-Feb-22 09:00N 33°58' E 130°46'612.7
2018-Feb-22 08:30N 33°57' E 130°39'612.7
2018-Feb-22 08:00N 33°56' E 130°31'611.1
2018-Feb-22 07:30N 33°52' E 130°26'612.3
2018-Feb-22 07:00N 33°48' E 130°21'612.3
2018-Feb-22 06:30N 33°44' E 130°15'612.5
2018-Feb-22 06:00N 33°40' E 130°10'712.5
2018-Feb-22 05:28N 33°37' E 130°03'612.3
2018-Feb-22 05:00N 33°34' E 129°56'1 0.0
2018-Feb-20 17:25N 33°34' E 129°55'612.5
2018-Feb-20 16:59N 33°36' E 130°02'712.3
2018-Feb-20 16:27N 33°39' E 130°08'512.2
2018-Feb-20 16:00N 33°42' E 130°14'612.8
2018-Feb-20 15:30N 33°46' E 130°19'713.0
2018-Feb-20 15:00N 33°51' E 130°25'612.1
2018-Feb-20 14:29N 33°56' E 130°30'612.9
2018-Feb-20 14:00N 33°57' E 130°37'713.1
2018-Feb-20 13:30N 33°58' E 130°45'612.4
2018-Feb-20 13:00N 33°56' E 130°52'4 7.4
2018-Feb-20 12:30N 33°57' E 130°56'4 8.9
2018-Feb-20 12:00N 33°58' E 131°02'612.8
2018-Feb-20 11:30N 33°55' E 131°08'510.0
2018-Feb-20 11:00N 33°56' E 131°14'1 1.9
2018-Feb-20 10:30N 33°57' E 131°14'0 0.0
2018-Feb-20 09:58N 33°57' E 131°14'0 0.0
2018-Feb-20 09:31N 33°57' E 131°14'0 0.0
2018-Feb-20 09:00N 33°57' E 131°14'0 0.0
2018-Feb-20 08:30N 33°57' E 131°14'0 0.0
2018-Feb-20 08:00N 33°57' E 131°14'0 0.0
2018-Feb-20 07:30N 33°57' E 131°14'0 0.0
2018-Feb-20 06:53N 33°57' E 131°14'0 0.0
2018-Feb-20 06:28N 33°57' E 131°14'0 0.0
2018-Feb-20 05:59N 33°57' E 131°14'0 0.0
2018-Feb-20 05:30N 33°57' E 131°14'0 0.0
2018-Feb-20 05:00N 33°57' E 131°14'0 0.0
2018-Feb-20 04:30N 33°57' E 131°14'0 0.0
2018-Feb-20 04:00N 33°57' E 131°14'0 0.0
2018-Feb-20 03:29N 33°57' E 131°14'0 0.0
2018-Feb-20 03:00N 33°57' E 131°14'0 0.0
2018-Feb-20 02:28N 33°57' E 131°14'0 0.6
2018-Feb-20 02:00N 33°57' E 131°14'3 6.3
2018-Feb-20 01:30N 33°54' E 131°12'1 1.1
2018-Feb-20 00:59N 33°54' E 131°11'0 0.0
2018-Feb-20 00:30N 33°54' E 131°11'0 0.1
2018-Feb-19 23:59N 33°54' E 131°11'510.5
2018-Feb-19 23:30N 33°56' E 131°06'612.3
2018-Feb-19 23:01N 33°58' E 130°59'510.3
2018-Feb-19 22:30N 33°54' E 130°55'5 9.6
2018-Feb-19 22:00N 33°59' E 130°53'612.8
2018-Feb-19 21:30N 34°05' E 130°51'713.3
2018-Feb-19 21:00N 34°11' E 130°50'5 9.7
2018-Feb-19 20:30N 34°16' E 130°49'611.8
2018-Feb-19 19:59N 34°22' E 130°49'5 0.1
2018-Feb-18 09:31N 34°25' E 130°54'212.0
2018-Feb-18 09:20N 34°24' E 130°51'411.3
2018-Feb-18 08:58N 34°21' E 130°48'612.0
2018-Feb-18 08:30N 34°16' E 130°49'612.4
2018-Feb-18 08:01N 34°09' E 130°49'612.2
2018-Feb-18 07:31N 34°03' E 130°51'611.6
2018-Feb-18 07:00N 33°58' E 130°52'4 7.8
2018-Feb-18 06:30N 33°55' E 130°56'510.2
2018-Feb-18 06:00N 33°59' E 130°60'510.1
2018-Feb-18 05:30N 33°55' E 131°04'510.8
2018-Feb-18 05:00N 33°50' E 131°04'0 0.1
2018-Feb-18 04:30N 33°49' E 131°04'0 0.0
2018-Feb-18 04:00N 33°49' E 131°04'0 0.0
2018-Feb-18 03:30N 33°49' E 131°04'0 0.1
2018-Feb-18 03:00N 33°49' E 131°04'0 0.0
2018-Feb-18 02:30N 33°49' E 131°04'0 0.0
2018-Feb-18 02:01N 33°50' E 131°04'0 0.0
2018-Feb-18 01:31N 33°50' E 131°04'0 0.0
2018-Feb-18 01:00N 33°50' E 131°04'0 0.0
2018-Feb-18 00:31N 33°50' E 131°04'0 0.0
2018-Feb-17 23:59N 33°50' E 131°04'0 0.0
2018-Feb-17 23:30N 33°50' E 131°04'0 0.0
2018-Feb-17 23:01N 33°50' E 131°04'0 0.0
2018-Feb-17 22:31N 33°50' E 131°04'0 0.0
2018-Feb-17 22:00N 33°50' E 131°04'0 0.0
2018-Feb-17 21:31N 33°50' E 131°04'0 0.0
2018-Feb-17 21:00N 33°50' E 131°04'0 0.1
2018-Feb-17 20:31N 33°49' E 131°04'0 0.1
2018-Feb-17 20:00N 33°50' E 131°04'0 0.0
2018-Feb-17 19:31N 33°50' E 131°04'0 0.0
2018-Feb-17 19:00N 33°49' E 131°04'0 0.0
2018-Feb-17 18:31N 33°49' E 131°04'0 0.0
2018-Feb-17 18:00N 33°49' E 131°04'0 0.0
2018-Feb-17 17:30N 33°49' E 131°04'0 0.0
2018-Feb-17 17:00N 33°49' E 131°04'0 0.0
2018-Feb-17 16:30N 33°49' E 131°04'0 0.0
2018-Feb-17 15:59N 33°49' E 131°04'0 0.0
2018-Feb-17 15:31N 33°50' E 131°04'0 0.0
2018-Feb-17 15:01N 33°50' E 131°04'0 0.0
2018-Feb-17 14:31N 33°50' E 131°04'0 0.1
2018-Feb-17 14:01N 33°49' E 131°04'0 0.1
2018-Feb-17 13:30N 33°49' E 131°04'0 0.0
2018-Feb-17 13:01N 33°49' E 131°04'0 0.1
2018-Feb-17 12:30N 33°49' E 131°04'0 0.1
2018-Feb-17 12:01N 33°49' E 131°04'0 0.0
2018-Feb-17 11:30N 33°49' E 131°04'0 0.0
2018-Feb-17 11:00N 33°49' E 131°04'0 0.0
2018-Feb-17 10:28N 33°49' E 131°04'0 0.0
2018-Feb-17 10:00N 33°49' E 131°04'0 0.0
2018-Feb-17 09:30N 33°49' E 131°04'0 0.0
2018-Feb-17 09:01N 33°49' E 131°04'0 0.1
2018-Feb-17 08:29N 33°49' E 131°04'0 0.0
2018-Feb-17 07:59N 33°49' E 131°04'0 0.0
2018-Feb-17 07:30N 33°49' E 131°04'0 0.0
2018-Feb-17 07:00N 33°49' E 131°04'0 0.0
2018-Feb-17 06:31N 33°49' E 131°04'0 0.0
2018-Feb-17 06:00N 33°49' E 131°04'0 0.0
2018-Feb-17 05:30N 33°49' E 131°04'0 0.0
2018-Feb-17 05:00N 33°49' E 131°04'0 0.0
2018-Feb-17 04:31N 33°49' E 131°04'0 0.1
2018-Feb-17 04:00N 33°50' E 131°04'4 8.2
2018-Feb-17 03:30N 33°47' E 131°00'0 0.1
2018-Feb-17 03:01N 33°47' E 131°00'0 0.0
2018-Feb-17 02:31N 33°47' E 131°00'0 0.0
2018-Feb-17 02:00N 33°47' E 131°00'0 0.0
2018-Feb-17 01:31N 33°47' E 131°00'0 0.0
2018-Feb-17 01:00N 33°47' E 131°00'0 0.0
2018-Feb-17 00:31N 33°47' E 131°00'0 0.2
2018-Feb-17 00:01N 33°47' E 131°00'4 8.3
2018-Feb-16 23:30N 33°49' E 131°05'1 1.0
2018-Feb-16 23:01N 33°49' E 131°06'0 0.0
2018-Feb-16 22:31N 33°49' E 131°06'0 0.0
2018-Feb-16 21:59N 33°49' E 131°06'0 0.0
2018-Feb-16 21:31N 33°49' E 131°06'0 0.0
2018-Feb-16 21:00N 33°49' E 131°06'0 0.0
2018-Feb-16 20:30N 33°49' E 131°06'0 0.0
2018-Feb-16 20:00N 33°49' E 131°06'0 0.0
2018-Feb-16 19:30N 33°49' E 131°06'0 0.0
2018-Feb-16 19:00N 33°49' E 131°06'0 0.0
2018-Feb-16 18:31N 33°49' E 131°06'0 0.0
2018-Feb-16 18:00N 33°49' E 131°06'0 0.0
2018-Feb-16 17:30N 33°49' E 131°06'0 0.1
2018-Feb-16 17:00N 33°49' E 131°05'5 9.2
2018-Feb-16 16:30N 33°48' E 131°11'611.7
2018-Feb-16 16:00N 33°47' E 131°18'611.7
2018-Feb-16 15:30N 33°45' E 131°25'611.8
2018-Feb-16 15:00N 33°44' E 131°31'611.6
2018-Feb-16 14:30N 33°42' E 131°38'611.3
2018-Feb-16 14:01N 33°39' E 131°43'612.3
2018-Feb-16 13:31N 33°34' E 131°48'713.0
2018-Feb-16 13:00N 33°29' E 131°53'713.3
2018-Feb-16 12:30N 33°23' E 131°57'713.1
2018-Feb-16 11:59N 33°18' E 132°02'12 0.7
2018-Feb-15 17:32N 33°10' E 132°13'913.6
2018-Feb-15 16:53N 33°15' E 132°05'614.1
2018-Feb-15 16:30N 33°18' E 131°60'713.9
2018-Feb-15 16:01N 33°24' E 131°54'713.6
2018-Feb-15 15:30N 33°30' E 131°50'713.8
2018-Feb-15 15:00N 33°36' E 131°46'713.6
2018-Feb-15 14:30N 33°41' E 131°41'713.3
2018-Feb-15 14:00N 33°43' E 131°33'612.7
2018-Feb-15 13:30N 33°45' E 131°26'612.4
2018-Feb-15 13:00N 33°46' E 131°19'612.3
2018-Feb-15 12:30N 33°48' E 131°11'5 9.8
2018-Feb-15 12:00N 33°49' E 131°06'0 0.1
2018-Feb-15 11:30N 33°49' E 131°06'0 0.0
2018-Feb-15 11:00N 33°49' E 131°06'0 0.0
2018-Feb-15 10:30N 33°49' E 131°06'0 0.0
2018-Feb-15 10:00N 33°49' E 131°06'0 0.0
2018-Feb-15 09:30N 33°49' E 131°06'0 0.0
2018-Feb-15 09:00N 33°49' E 131°06'0 0.0
2018-Feb-15 08:30N 33°49' E 131°06'0 0.0
2018-Feb-15 08:00N 33°49' E 131°06'0 0.0
2018-Feb-15 07:30N 33°49' E 131°06'0 0.1
2018-Feb-15 07:00N 33°49' E 131°06'0 0.0
2018-Feb-15 06:30N 33°49' E 131°06'0 0.0
2018-Feb-15 06:00N 33°49' E 131°06'0 0.0
2018-Feb-15 05:30N 33°49' E 131°06'0 0.0
2018-Feb-15 05:00N 33°49' E 131°06'0 0.1
2018-Feb-15 04:30N 33°49' E 131°06'4 7.9
2018-Feb-15 04:00N 33°48' E 131°01'1 2.3
2018-Feb-15 03:30N 33°47' E 131°00'0 0.0
2018-Feb-15 03:00N 33°47' E 131°00'0 0.0
2018-Feb-15 02:30N 33°47' E 131°00'0 0.0
2018-Feb-15 02:00N 33°47' E 131°00'0 0.0
2018-Feb-15 01:30N 33°47' E 131°00'0 0.0
2018-Feb-15 01:00N 33°47' E 131°00'0 0.0
2018-Feb-15 00:30N 33°47' E 131°00'0 0.0
2018-Feb-15 00:00N 33°47' E 131°00'0 0.0
2018-Feb-14 23:30N 33°47' E 131°00'3 6.7
2018-Feb-14 23:01N 33°49' E 131°04'713.5
2018-Feb-14 22:30N 33°52' E 131°11'510.5
2018-Feb-14 22:00N 33°57' E 131°14'0 0.1
2018-Feb-14 21:30N 33°57' E 131°14'0 0.0
2018-Feb-14 21:00N 33°57' E 131°14'0 0.0
2018-Feb-14 20:24N 33°57' E 131°14'0 0.0
2018-Feb-14 19:58N 33°57' E 131°14'0 0.0
2018-Feb-14 19:30N 33°57' E 131°14'0 0.0
2018-Feb-14 18:59N 33°57' E 131°14'0 0.0
2018-Feb-14 18:29N 33°57' E 131°14'0 0.0
2018-Feb-14 18:00N 33°57' E 131°14'0 0.0
2018-Feb-14 17:28N 33°57' E 131°14'0 0.0
2018-Feb-14 17:00N 33°57' E 131°14'0 0.0
2018-Feb-14 16:30N 33°57' E 131°14'0 0.0
2018-Feb-14 16:00N 33°57' E 131°14'0 0.0
2018-Feb-14 15:25N 33°57' E 131°14'0 0.0
2018-Feb-14 15:00N 33°57' E 131°14'0 0.0
2018-Feb-14 14:29N 33°57' E 131°14'0 0.0
2018-Feb-14 14:00N 33°57' E 131°14'0 0.0
2018-Feb-14 13:29N 33°57' E 131°14'0 0.0
2018-Feb-14 13:00N 33°57' E 131°14'0 0.0
2018-Feb-14 12:30N 33°57' E 131°14'0 0.0
2018-Feb-14 11:58N 33°57' E 131°14'0 0.0
2018-Feb-14 11:30N 33°57' E 131°14'0 0.0
2018-Feb-14 10:59N 33°57' E 131°14'0 0.0
2018-Feb-14 10:29N 33°57' E 131°14'0 0.0
2018-Feb-14 10:00N 33°57' E 131°14'0 0.0
2018-Feb-14 09:23N 33°57' E 131°14'0 0.0
2018-Feb-14 08:59N 33°57' E 131°14'0 0.0
2018-Feb-14 08:30N 33°57' E 131°14'0 0.0
2018-Feb-14 07:58N 33°57' E 131°14'0 0.0
2018-Feb-14 07:30N 33°57' E 131°14'0 0.0
2018-Feb-14 07:00N 33°57' E 131°14'0 0.0
2018-Feb-14 06:28N 33°57' E 131°14'0 0.0
2018-Feb-14 05:59N 33°57' E 131°14'0 0.0
2018-Feb-14 05:30N 33°57' E 131°14'0 0.0
2018-Feb-14 05:00N 33°57' E 131°14'0 0.0
2018-Feb-14 04:30N 33°57' E 131°14'0 0.0
2018-Feb-14 03:58N 33°57' E 131°14'0 0.0
2018-Feb-14 03:29N 33°57' E 131°14'0 0.0
2018-Feb-14 02:57N 33°57' E 131°14'0 0.0
2018-Feb-14 02:30N 33°57' E 131°14'0 0.2
2018-Feb-14 02:01N 33°57' E 131°14'4 8.5
2018-Feb-14 01:30N 33°52' E 131°14'611.9
2018-Feb-14 01:00N 33°51' E 131°21'612.2
2018-Feb-14 00:30N 33°50' E 131°28'612.3
2018-Feb-14 00:00N 33°49' E 131°36'612.4
2018-Feb-13 23:30N 33°47' E 131°43'612.6
2018-Feb-13 23:00N 33°46' E 131°50'612.0
2018-Feb-13 22:30N 33°44' E 131°57'1111.6
2018-Feb-13 21:32N 33°43' E 132°11'010.9
2018-Feb-13 21:29N 33°43' E 132°11'611.5
2018-Feb-13 20:56N 33°45' E 132°18'711.5
2018-Feb-13 20:22N 33°47' E 132°26'411.7
2018-Feb-13 20:00N 33°49' E 132°30'611.9
2018-Feb-13 19:30N 33°53' E 132°36'712.4
2018-Feb-13 18:57N 33°57' E 132°42'7311.1
2018-Feb-13 12:20N 34°27' E 134°03'1011.9
2018-Feb-13 11:30N 34°24' E 134°15'610.8
2018-Feb-13 11:00N 34°22' E 134°21'  

Dump ship's entire track history